Time;durP1;ratioP1;P1;durP2;ratioP2;P2;SDS_P1;SDS_P2;PMS_P1;PMS_P2;Temp;Humidity;BMP_temperature;BMP_pressure;BME280_temperature;BME280_humidity;BME280_pressure;Samples;Min_cycle;Max_cycle;Signal;HPM_P1;HPM_P2
2022/12/29 00:04:14;;;;;;;7.00;3.90;;;21.50;59.40;;;;;;212062;1315;25319;-58
2022/12/29 00:09:18;;;;;;;6.70;3.90;;;21.50;59.30;;;;;;211967;1308;24655;-57
2022/12/29 00:36:04;;;;;;;7.60;3.30;;;21.30;59.00;;;;;;212206;1315;22472;-54
2022/12/29 00:46:42;;;;;;;9.10;4.20;;;21.30;58.80;;;;;;211688;1313;25425;-58
2022/12/29 00:51:47;;;;;;;6.80;3.50;;;21.30;58.70;;;;;;212484;1310;24528;-58
2022/12/29 00:56:52;;;;;;;4.30;3.00;;;21.30;58.70;;;;;;212270;1291;24349;-59
2022/12/29 01:01:56;;;;;;;6.70;3.50;;;21.20;58.70;;;;;;212104;1299;23107;-58
2022/12/29 01:07:01;;;;;;;6.00;3.30;;;21.20;58.50;;;;;;211978;1300;22495;-59
2022/12/29 01:12:08;;;;;;;5.10;2.90;;;21.20;58.90;;;;;;211889;1302;24443;-58
2022/12/29 01:17:12;;;;;;;4.90;2.80;;;21.20;58.80;;;;;;211892;1313;22490;-59
2022/12/29 01:22:16;;;;;;;6.00;3.50;;;21.30;58.90;;;;;;211962;1296;23114;-59
2022/12/29 01:27:20;;;;;;;4.90;3.20;;;21.50;58.20;;;;;;212053;1297;22487;-58
2022/12/29 01:32:24;;;;;;;6.90;3.10;;;21.70;58.30;;;;;;212078;1310;22531;-60
2022/12/29 01:37:28;;;;;;;5.80;2.80;;;21.80;57.50;;;;;;212122;1313;22559;-57
2022/12/29 01:42:32;;;;;;;4.40;2.80;;;21.90;57.30;;;;;;211772;1315;22649;-56
2022/12/29 01:47:46;;;;;;;5.40;3.00;;;22.00;57.20;;;;;;212109;1303;22549;-59
2022/12/29 01:53:05;;;;;;;6.40;3.00;;;22.00;57.50;;;;;;212047;1302;25339;-58
2022/12/29 01:58:11;;;;;;;4.80;2.70;;;22.10;57.20;;;;;;212175;1312;24051;-59
2022/12/29 02:03:19;;;;;;;4.20;2.90;;;22.20;56.80;;;;;;212010;1315;25306;-59
2022/12/29 02:08:26;;;;;;;4.50;2.50;;;22.20;56.90;;;;;;211994;1296;22515;-59
2022/12/29 02:13:30;;;;;;;4.60;2.80;;;22.30;56.50;;;;;;212010;1303;22500;-59
2022/12/29 02:18:40;;;;;;;3.60;2.40;;;22.30;56.70;;;;;;212263;1302;24125;-59
2022/12/29 02:23:47;;;;;;;4.60;2.70;;;22.30;56.30;;;;;;212206;1311;25406;-59
2022/12/29 02:28:54;;;;;;;4.40;2.60;;;22.30;56.30;;;;;;212118;1312;22538;-57
2022/12/29 02:34:18;;;;;;;6.80;2.80;;;22.30;56.20;;;;;;212016;1298;22508;-57
2022/12/29 02:39:41;;;;;;;3.20;2.20;;;22.40;56.10;;;;;;212030;1306;22493;-58
2022/12/29 02:45:05;;;;;;;4.30;2.50;;;22.40;56.40;;;;;;212092;1316;22507;-56
2022/12/29 02:50:18;;;;;;;3.20;2.20;;;22.50;55.90;;;;;;211863;1299;22714;-58
2022/12/29 02:55:22;;;;;;;4.20;2.50;;;22.50;55.70;;;;;;212081;1306;24423;-59
2022/12/29 03:00:27;;;;;;;4.50;2.70;;;22.50;55.60;;;;;;212101;1307;22640;-59
2022/12/29 03:05:56;;;;;;;3.30;2.30;;;22.50;55.50;;;;;;212105;1312;23970;-59
2022/12/29 03:17:10;;;;;;;4.30;3.10;;;22.50;55.70;;;;;;212046;1299;22936;-58
2022/12/29 03:22:27;;;;;;;4.50;2.60;;;22.50;55.80;;;;;;212008;1311;22643;-59
2022/12/29 03:27:53;;;;;;;4.80;2.30;;;22.40;55.60;;;;;;211966;1296;22566;-59
2022/12/29 03:33:03;;;;;;;3.20;1.80;;;22.50;55.60;;;;;;211927;1299;24265;-59
2022/12/29 03:38:31;;;;;;;3.80;2.30;;;22.50;55.50;;;;;;211566;1306;22581;-60
2022/12/29 03:43:37;;;;;;;3.40;2.20;;;22.50;55.50;;;;;;211966;1314;22543;-59
2022/12/29 03:48:41;;;;;;;3.30;2.00;;;22.50;55.80;;;;;;212043;1315;25437;-57
2022/12/29 03:53:45;;;;;;;4.00;2.40;;;22.60;55.30;;;;;;212319;1314;22654;-60
2022/12/29 03:58:50;;;;;;;3.30;2.00;;;22.60;55.20;;;;;;212165;1302;23142;-59
2022/12/29 04:04:00;;;;;;;3.60;2.00;;;22.60;55.10;;;;;;212073;1310;23870;-60
2022/12/29 04:09:05;;;;;;;3.50;2.00;;;22.60;55.30;;;;;;212061;1303;24231;-59
2022/12/29 04:14:15;;;;;;;3.90;2.20;;;22.60;55.30;;;;;;211823;1309;22485;-60
2022/12/29 04:19:21;;;;;;;3.10;1.90;;;22.60;55.30;;;;;;212053;1296;22532;-59
2022/12/29 04:24:25;;;;;;;3.70;2.50;;;22.50;55.60;;;;;;212183;1309;22492;-59
2022/12/29 04:29:30;;;;;;;3.00;2.00;;;22.50;55.60;;;;;;212107;1306;22508;-59
2022/12/29 04:34:40;;;;;;;2.80;1.70;;;22.40;55.50;;;;;;212180;1310;22645;-59
2022/12/29 04:39:44;;;;;;;3.20;1.80;;;22.40;55.70;;;;;;211978;1312;22531;-59
2022/12/29 04:44:49;;;;;;;3.20;1.70;;;22.30;56.10;;;;;;212191;1297;22544;-59
2022/12/29 04:50:10;;;;;;;5.50;2.10;;;22.30;55.60;;;;;;212112;1315;25492;-59
2022/12/29 04:55:19;;;;;;;2.80;1.90;;;22.20;55.90;;;;;;212129;1313;22532;-58
2022/12/29 05:00:23;;;;;;;3.00;1.80;;;22.10;55.90;;;;;;212023;1310;22649;-57
2022/12/29 05:05:27;;;;;;;3.50;2.00;;;22.10;56.50;;;;;;212353;1306;25258;-56
2022/12/29 05:10:33;;;;;;;3.30;1.80;;;22.00;56.10;;;;;;212173;1303;22709;-57
2022/12/29 05:15:47;;;;;;;2.70;1.60;;;22.00;56.40;;;;;;212174;1311;24030;-57
2022/12/29 05:20:52;;;;;;;2.90;1.80;;;22.00;56.00;;;;;;212162;1307;22608;-58
2022/12/29 05:25:57;;;;;;;2.70;1.60;;;21.90;56.00;;;;;;211883;1309;22553;-60
2022/12/29 05:31:18;;;;;;;2.70;1.80;;;21.90;55.90;;;;;;212106;1290;22666;-59
2022/12/29 05:36:23;;;;;;;3.00;2.00;;;21.80;55.80;;;;;;212142;1298;25628;-59
2022/12/29 05:41:34;;;;;;;2.70;1.80;;;21.80;55.80;;;;;;211956;1296;22601;-59
2022/12/29 05:46:41;;;;;;;2.50;1.50;;;21.80;56.30;;;;;;212019;1310;25253;-60
2022/12/29 05:51:49;;;;;;;2.70;1.70;;;21.70;55.90;;;;;;212050;1309;22493;-59
2022/12/29 05:56:53;;;;;;;3.00;2.00;;;21.70;55.90;;;;;;212132;1310;22724;-59
2022/12/29 06:01:58;;;;;;;3.90;1.80;;;21.70;56.00;;;;;;212019;1300;24250;-59
2022/12/29 06:07:04;;;;;;;3.20;1.70;;;21.70;56.10;;;;;;212044;1295;22611;-58
2022/12/29 06:12:16;;;;;;;3.30;1.80;;;21.60;55.90;;;;;;211883;1303;22618;-58
2022/12/29 06:17:22;;;;;;;3.20;2.40;;;21.60;56.10;;;;;;212053;1310;22534;-59
2022/12/29 06:22:27;;;;;;;3.70;2.50;;;21.50;55.90;;;;;;212031;1297;24456;-60
2022/12/29 06:27:32;;;;;;;7.80;3.10;;;21.50;56.10;;;;;;212154;1306;22480;-59
2022/12/29 06:32:36;;;;;;;4.10;2.90;;;21.50;56.10;;;;;;212047;1312;22635;-59
2022/12/29 06:37:41;;;;;;;4.50;3.00;;;21.50;56.10;;;;;;212166;1302;22475;-58
2022/12/29 06:42:45;;;;;;;4.20;3.00;;;21.40;56.10;;;;;;212110;1314;22493;-59
2022/12/29 06:48:13;;;;;;;3.70;2.80;;;21.40;56.10;;;;;;211702;1299;24233;-59
2022/12/29 06:53:17;;;;;;;4.80;2.80;;;21.40;56.00;;;;;;212132;1303;23872;-60
2022/12/29 06:58:24;;;;;;;6.10;3.10;;;21.40;56.20;;;;;;212147;1312;22511;-59
2022/12/29 07:03:28;;;;;;;3.80;2.80;;;21.50;56.40;;;;;;211925;1305;22598;-60
2022/12/29 07:08:32;;;;;;;3.70;2.60;;;21.80;56.00;;;;;;212160;1315;22687;-59
2022/12/29 07:13:36;;;;;;;5.00;2.80;;;21.90;55.50;;;;;;212208;1303;22767;-58
2022/12/29 07:18:40;;;;;;;4.30;3.20;;;22.00;55.10;;;;;;212090;1308;23679;-59
2022/12/29 07:23:45;;;;;;;5.60;3.20;;;22.00;53.90;;;;;;212177;1297;22484;-59
2022/12/29 07:28:49;;;;;;;4.20;3.10;;;22.00;54.40;;;;;;212291;1300;22490;-55
2022/12/29 07:33:54;;;;;;;3.90;2.80;;;22.20;54.30;;;;;;212437;1298;22648;-57
2022/12/29 07:38:58;;;;;;;4.50;2.80;;;22.20;54.20;;;;;;212146;1306;25266;-58
2022/12/29 07:44:03;;;;;;;4.40;3.00;;;22.30;54.00;;;;;;212103;1297;22517;-58
2022/12/29 07:49:26;;;;;;;4.00;2.70;;;22.30;53.80;;;;;;212175;1312;22598;-59
2022/12/29 07:54:30;;;;;;;4.00;2.60;;;22.40;53.80;;;;;;212160;1311;24303;-60
2022/12/29 07:59:35;;;;;;;4.10;2.80;;;22.40;53.90;;;;;;212199;1310;23874;-60
2022/12/29 08:04:40;;;;;;;4.10;2.60;;;22.30;53.90;;;;;;212118;1310;22590;-58
2022/12/29 08:09:45;;;;;;;4.00;3.00;;;22.30;54.20;;;;;;212402;1301;22484;-59
2022/12/29 08:14:49;;;;;;;5.30;2.60;;;22.40;54.10;;;;;;212152;1296;25317;-59
2022/12/29 08:19:54;;;;;;;4.60;2.50;;;22.40;53.90;;;;;;212271;1295;22570;-59
2022/12/29 08:24:58;;;;;;;3.30;2.40;;;22.40;53.90;;;;;;212178;1310;22610;-59
2022/12/29 08:30:03;;;;;;;5.20;2.60;;;22.40;53.90;;;;;;212026;1318;22509;-59
2022/12/29 08:35:08;;;;;;;7.30;2.90;;;22.40;53.90;;;;;;212365;1308;22637;-60
2022/12/29 08:40:13;;;;;;;5.90;2.70;;;22.30;54.10;;;;;;212014;1293;24425;-60
2022/12/29 08:45:17;;;;;;;5.40;2.80;;;22.30;54.30;;;;;;212061;1301;22543;-59
2022/12/29 08:50:21;;;;;;;5.90;2.70;;;22.30;54.20;;;;;;212044;1296;22486;-59
2022/12/29 08:55:26;;;;;;;4.50;2.50;;;22.30;54.40;;;;;;212234;1318;22644;-60
2022/12/29 09:00:30;;;;;;;6.40;2.60;;;22.30;54.30;;;;;;212108;1306;22512;-60
2022/12/29 09:05:35;;;;;;;7.70;2.70;;;22.30;54.40;;;;;;212133;1309;22527;-62
2022/12/29 09:10:40;;;;;;;4.40;2.30;;;22.40;54.40;;;;;;211975;1296;24281;-57
2022/12/29 09:15:44;;;;;;;9.20;2.40;;;22.40;54.30;;;;;;211873;1300;22671;-60
2022/12/29 09:20:48;;;;;;;7.80;2.90;;;22.40;54.20;;;;;;212395;1297;25274;-58
2022/12/29 09:25:53;;;;;;;4.80;3.20;;;22.50;54.10;;;;;;211965;1301;22658;-59
2022/12/29 09:30:58;;;;;;;8.90;3.00;;;22.50;53.80;;;;;;212115;1300;25477;-60
2022/12/29 09:36:03;;;;;;;6.60;2.40;;;22.40;53.80;;;;;;211918;1296;25539;-57
2022/12/29 09:41:33;;;;;;;6.20;3.20;;;22.50;53.50;;;;;;211858;1300;25135;-58
2022/12/29 09:46:47;;;;;;;5.20;2.80;;;22.50;53.30;;;;;;211833;1304;22497;-58
2022/12/29 09:51:55;;;;;;;6.60;2.90;;;22.50;53.50;;;;;;211797;1301;24338;-59
2022/12/29 09:56:59;;;;;;;5.40;2.60;;;22.50;53.30;;;;;;211605;1296;24450;-59
2022/12/29 10:02:24;;;;;;;9.00;2.60;;;22.50;53.10;;;;;;211861;1308;25580;-59
2022/12/29 10:07:41;;;;;;;5.00;2.60;;;22.50;53.10;;;;;;211843;1293;22697;-58
2022/12/29 10:12:55;;;;;;;6.10;2.90;;;22.60;52.80;;;;;;211816;1312;25377;-56
2022/12/29 10:18:38;;;;;;;4.50;2.60;;;22.60;52.60;;;;;;212443;1303;22770;-58
2022/12/29 10:23:54;;;;;;;4.60;2.30;;;22.60;52.50;;;;;;211609;1303;22488;-59
2022/12/29 10:29:03;;;;;;;4.20;2.40;;;22.70;52.10;;;;;;212024;1291;22497;-60
2022/12/29 10:34:33;;;;;;;5.30;2.80;;;22.80;52.20;;;;;;212400;1290;22727;-60
2022/12/29 10:39:51;;;;;;;4.60;2.90;;;22.80;52.00;;;;;;212015;1312;22467;-60
2022/12/29 10:44:57;;;;;;;4.30;2.60;;;22.80;51.90;;;;;;212070;1299;22473;-61
2022/12/29 10:50:02;;;;;;;5.40;2.80;;;22.90;52.10;;;;;;212051;1303;22852;-59
2022/12/29 10:55:17;;;;;;;6.20;2.60;;;22.80;52.30;;;;;;212086;1303;22531;-62
2022/12/29 11:00:22;;;;;;;5.40;2.00;;;22.80;52.60;;;;;;212089;1315;25828;-63
2022/12/29 11:05:54;;;;;;;3.30;2.50;;;22.70;52.20;;;;;;212270;1298;25471;-61
2022/12/29 11:11:05;;;;;;;7.50;2.50;;;22.80;52.50;;;;;;212163;1300;22488;-61
2022/12/29 11:16:12;;;;;;;5.30;2.40;;;22.80;52.20;;;;;;212236;1299;22547;-61
2022/12/29 11:21:41;;;;;;;4.60;2.20;;;22.80;52.50;;;;;;212357;1303;25505;-60
2022/12/29 11:26:56;;;;;;;4.10;2.20;;;22.80;52.20;;;;;;212039;1313;22690;-59
2022/12/29 11:32:17;;;;;;;9.50;2.40;;;22.70;52.20;;;;;;212037;1315;25526;-60
2022/12/29 11:37:34;;;;;;;9.70;2.30;;;22.70;52.60;;;;;;211985;1312;22491;-60
2022/12/29 11:42:42;;;;;;;6.30;2.50;;;22.70;52.20;;;;;;212061;1305;22514;-57
2022/12/29 11:47:57;;;;;;;4.90;2.30;;;22.60;51.80;;;;;;211739;1299;23719;-58
2022/12/29 11:53:30;;;;;;;4.80;2.70;;;22.50;51.40;;;;;;216996;1310;23713;-58
2022/12/29 11:58:36;;;;;;;5.90;2.20;;;22.40;51.30;;;;;;217214;1316;24331;-59
2022/12/29 12:03:47;;;;;;;4.80;2.40;;;22.40;51.30;;;;;;213376;1303;22499;-59
2022/12/29 12:08:56;;;;;;;;;;;22.40;51.80;;;;;;212298;1306;24254;-58
2022/12/29 12:14:10;;;;;;;5.80;2.30;;;22.30;51.00;;;;;;212141;1303;207615;-59
2022/12/29 12:19:48;;;;;;;4.00;2.30;;;22.30;51.10;;;;;;212007;1297;22679;-60
2022/12/29 12:25:02;;;;;;;5.30;2.30;;;22.20;51.10;;;;;;212152;1303;24253;-60
2022/12/29 12:30:18;;;;;;;3.90;2.20;;;22.20;51.10;;;;;;212159;1303;24326;-57
2022/12/29 12:35:44;;;;;;;4.20;2.20;;;22.20;51.00;;;;;;212161;1310;22692;-60
2022/12/29 12:40:58;;;;;;;3.90;2.00;;;22.20;51.00;;;;;;212272;1300;22493;-60
2022/12/29 12:46:25;;;;;;;5.00;2.00;;;22.10;51.00;;;;;;211830;1313;22555;-60
2022/12/29 12:51:57;;;;;;;6.70;2.50;;;22.00;50.90;;;;;;212033;1313;22546;-59
2022/12/29 12:57:24;;;;;;;4.80;2.00;;;22.00;51.30;;;;;;210638;1315;22542;-59
2022/12/29 13:02:50;;;;;;;8.50;2.30;;;22.00;51.10;;;;;;210499;1309;26557;-59
2022/12/29 13:08:23;;;;;;;7.80;2.50;;;22.10;51.70;;;;;;210740;1318;22632;-59
2022/12/29 13:13:39;;;;;;;11.60;2.60;;;22.00;52.90;;;;;;210744;1306;22568;-57
2022/12/29 13:18:52;;;;;;;4.10;2.20;;;22.00;52.50;;;;;;210539;1306;22682;-57
2022/12/29 13:24:09;;;;;;;8.30;2.50;;;21.90;52.70;;;;;;210727;1312;22505;-58
2022/12/29 13:29:35;;;;;;;8.40;2.40;;;21.90;52.10;;;;;;210407;1309;22506;-56
2022/12/29 13:35:06;;;;;;;4.30;2.30;;;21.90;52.60;;;;;;211763;1308;22495;-55
2022/12/29 13:40:16;;;;;;;6.40;2.40;;;21.80;52.70;;;;;;212060;1297;24246;-58
2022/12/29 13:45:26;;;;;;;6.90;2.40;;;21.80;52.70;;;;;;212131;1310;24189;-56
2022/12/29 13:50:36;;;;;;;4.90;2.10;;;21.80;52.70;;;;;;211931;1305;22520;-56
2022/12/29 13:55:57;;;;;;;6.00;2.30;;;21.70;53.10;;;;;;211976;1313;25365;-58
2022/12/29 14:01:37;;;;;;;5.50;2.30;;;21.70;52.60;;;;;;212119;1303;22557;-56
2022/12/29 14:06:44;;;;;;;6.00;2.20;;;21.70;53.10;;;;;;210687;1323;22526;-57
2022/12/29 14:11:48;;;;;;;6.80;2.40;;;21.70;52.60;;;;;;210721;1301;22514;-56
2022/12/29 14:16:53;;;;;;;6.20;2.30;;;21.60;52.50;;;;;;210503;1302;24256;-55
2022/12/29 14:22:06;;;;;;;10.20;2.60;;;21.60;52.60;;;;;;210744;1313;25480;-55
2022/12/29 14:27:10;;;;;;;5.80;2.10;;;21.50;52.60;;;;;;210486;1315;22603;-58
2022/12/29 14:32:26;;;;;;;7.40;3.00;;;21.50;52.60;;;;;;211767;1302;23513;-58
2022/12/29 14:37:33;;;;;;;7.80;2.60;;;21.50;52.90;;;;;;210516;1309;24237;-57
2022/12/29 14:42:40;;;;;;;7.30;2.80;;;21.50;52.30;;;;;;211399;1301;24377;-58
2022/12/29 14:47:49;;;;;;;5.60;2.30;;;21.40;52.20;;;;;;212054;1298;22958;-59
2022/12/29 14:52:59;;;;;;;7.20;2.70;;;21.50;52.60;;;;;;212016;1300;22491;-58
2022/12/29 14:58:17;;;;;;;5.80;2.50;;;21.40;52.60;;;;;;212062;1313;22516;-58
2022/12/29 15:03:28;;;;;;;11.40;2.80;;;21.40;52.80;;;;;;211935;1306;23082;-59
2022/12/29 15:08:39;;;;;;;9.00;3.50;;;21.40;53.00;;;;;;212228;1316;24314;-57
2022/12/29 15:13:44;;;;;;;6.60;3.50;;;21.40;53.80;;;;;;212012;1300;22625;-57
2022/12/29 15:18:49;;;;;;;6.50;3.20;;;21.40;53.30;;;;;;212427;1305;22490;-57
2022/12/29 15:23:53;;;;;;;6.60;3.30;;;21.40;53.20;;;;;;212161;1304;25343;-57
2022/12/29 15:28:57;;;;;;;6.00;3.60;;;21.30;53.20;;;;;;212120;1303;24267;-58
2022/12/29 15:34:10;;;;;;;8.50;3.40;;;21.30;53.00;;;;;;212168;1296;23104;-56
2022/12/29 15:39:29;;;;;;;7.70;3.40;;;21.30;53.00;;;;;;212149;1315;22607;-56
2022/12/29 15:44:36;;;;;;;13.90;3.50;;;21.30;52.80;;;;;;212098;1303;24285;-57
2022/12/29 15:49:42;;;;;;;8.40;3.80;;;21.80;53.10;;;;;;212255;1305;22490;-60
2022/12/29 15:54:50;;;;;;;7.00;3.40;;;22.00;51.50;;;;;;212435;1299;22537;-58
2022/12/29 15:59:55;;;;;;;5.50;3.40;;;22.00;51.20;;;;;;212107;1301;24560;-56
2022/12/29 16:04:59;;;;;;;7.20;3.60;;;22.00;51.00;;;;;;212241;1307;24440;-56
2022/12/29 16:10:46;;;;;;;7.00;3.40;;;22.10;50.60;;;;;;212289;1298;22610;-56
2022/12/29 16:15:56;;;;;;;8.50;3.30;;;22.20;50.50;;;;;;212070;1306;22487;-54
2022/12/29 16:21:02;;;;;;;5.40;3.50;;;22.40;50.80;;;;;;212098;1308;25436;-58
2022/12/29 16:26:16;;;;;;;5.80;3.40;;;22.60;49.90;;;;;;212100;1314;26113;-57
2022/12/29 16:31:35;;;;;;;5.70;3.70;;;22.70;49.60;;;;;;212384;1310;22618;-57
2022/12/29 16:37:10;;;;;;;9.90;3.30;;;22.80;49.30;;;;;;212000;1315;27883;-58
2022/12/29 16:42:46;;;;;;;7.70;3.40;;;22.90;49.10;;;;;;211672;1308;22687;-57
2022/12/29 16:48:07;;;;;;;7.80;3.80;;;23.00;49.60;;;;;;212040;1301;22485;-60
2022/12/29 16:53:25;;;;;;;7.70;3.40;;;23.00;49.20;;;;;;212630;1303;24263;-60
2022/12/29 16:58:31;;;;;;;7.10;3.80;;;23.10;48.50;;;;;;212328;1308;22597;-57
2022/12/29 17:03:40;;;;;;;7.90;3.80;;;23.10;48.80;;;;;;212218;1300;24267;-58
2022/12/29 17:08:45;;;;;;;9.50;3.60;;;23.20;48.40;;;;;;212106;1298;22858;-60
2022/12/29 17:13:49;;;;;;;8.80;3.70;;;23.20;48.70;;;;;;212196;1311;24334;-59
2022/12/29 17:44:39;;;;;;;15.40;4.10;;;22.80;49.30;;;;;;199651;1320;949920;-58
2022/12/29 17:50:29;;;;;;;11.90;4.10;;;22.80;50.10;;;;;;208996;1311;22558;-59
2022/12/29 17:56:06;;;;;;;5.70;2.80;;;22.50;49.40;;;;;;212031;1321;22493;-56
2022/12/29 18:01:43;;;;;;;6.00;3.90;;;22.50;50.20;;;;;;208808;1321;23448;-58
2022/12/29 18:07:21;;;;;;;10.10;4.40;;;22.40;49.90;;;;;;210249;1310;22527;-57
2022/12/29 18:13:06;;;;;;;10.60;4.40;;;22.30;49.80;;;;;;216804;1316;22198;-55
2022/12/29 18:18:44;;;;;;;9.10;4.20;;;22.30;49.80;;;;;;217479;1322;22856;-57
2022/12/29 18:24:21;;;;;;;6.60;4.00;;;22.30;49.60;;;;;;209351;1322;26198;-58
2022/12/29 18:29:58;;;;;;;11.80;4.90;;;22.30;49.40;;;;;;212500;1329;22540;-61
2022/12/29 18:35:58;;;;;;;8.40;4.10;;;22.30;50.70;;;;;;217500;1307;22254;-55
2022/12/29 18:41:35;;;;;;;6.20;4.10;;;22.30;51.10;;;;;;208726;1322;22597;-61
2022/12/29 18:47:12;;;;;;;7.60;4.60;;;22.10;51.00;;;;;;214181;1315;22926;-56
2022/12/29 18:52:51;;;;;;;9.70;4.80;;;22.00;51.10;;;;;;209580;1321;26177;-57
2022/12/29 18:58:33;;;;;;;8.80;3.90;;;22.00;51.60;;;;;;208984;1324;25914;-55
2022/12/29 19:04:10;;;;;;;9.50;5.20;;;22.00;51.50;;;;;;217507;1320;22176;-59
2022/12/29 19:09:47;;;;;;;10.40;4.80;;;22.00;51.50;;;;;;212341;1312;22512;-58
2022/12/29 19:15:41;;;;;;;14.40;7.50;;;21.90;51.30;;;;;;211569;1315;22624;-59
2022/12/29 19:21:19;;;;;;;11.60;7.00;;;21.90;51.70;;;;;;212193;1311;24736;-58
2022/12/29 19:26:56;;;;;;;16.60;8.20;;;21.90;51.40;;;;;;208752;1314;25242;-54
2022/12/29 19:32:34;;;;;;;10.50;7.10;;;21.90;53.70;;;;;;216112;1310;22539;-58
2022/12/29 19:38:11;;;;;;;16.10;7.30;;;21.80;53.30;;;;;;208784;1324;22511;-58
2022/12/29 19:43:49;;;;;;;11.60;7.40;;;21.80;53.30;;;;;;210311;1307;22822;-57
2022/12/29 19:49:26;;;;;;;11.90;6.70;;;21.80;55.70;;;;;;217476;1314;22207;-56
2022/12/29 19:55:04;;;;;;;12.90;7.30;;;21.70;58.00;;;;;;217471;1322;22912;-58
2022/12/29 20:00:49;;;;;;;9.50;6.40;;;21.80;61.00;;;;;;216533;1322;22668;-56
2022/12/29 20:06:27;;;;;;;9.60;7.00;;;21.80;60.00;;;;;;212149;1316;22797;-56
2022/12/29 20:12:04;;;;;;;11.50;7.10;;;21.80;59.50;;;;;;212099;1314;22545;-58
2022/12/29 20:17:42;;;;;;;11.10;6.20;;;21.80;59.40;;;;;;208949;1317;22660;-57
2022/12/29 20:23:43;;;;;;;13.50;6.50;;;21.80;58.70;;;;;;210708;1322;22679;-57
2022/12/29 20:29:20;;;;;;;8.70;5.60;;;21.70;58.60;;;;;;208673;1311;22659;-58
2022/12/29 20:34:58;;;;;;;17.50;6.10;;;21.60;58.50;;;;;;208866;1329;22551;-58
2022/12/29 20:40:35;;;;;;;10.30;6.30;;;21.50;58.30;;;;;;208847;1325;24358;-57
2022/12/29 20:46:17;;;;;;;16.90;7.40;;;21.50;58.30;;;;;;208968;1317;24148;-58
2022/12/29 20:52:04;;;;;;;20.20;7.00;;;21.60;61.80;;;;;;210264;1316;24474;-56
2022/12/29 20:57:42;;;;;;;13.40;6.50;;;21.60;60.20;;;;;;208667;1323;22522;-57
2022/12/29 21:16:11;;;;;;;16.20;6.60;;;21.70;62.20;;;;;;180054;1318;22689;31
2022/12/29 21:21:49;;;;;;;21.60;9.00;;;21.70;62.20;;;;;;208701;1309;22534;-46
2022/12/29 21:27:28;;;;;;;22.30;8.20;;;21.70;63.50;;;;;;210294;1323;22509;-47
2022/12/29 21:33:05;;;;;;;30.90;9.70;;;21.70;63.60;;;;;;208961;1314;22502;-46
2022/12/29 21:38:43;;;;;;;24.80;7.60;;;21.70;63.70;;;;;;215285;1321;25542;-49
2022/12/29 21:50:16;;;;;;;18.40;8.10;;;21.60;63.20;;;;;;208870;1326;22914;-49
2022/12/29 21:55:53;;;;;;;22.40;7.90;;;21.60;62.90;;;;;;208885;1323;25528;-52
2022/12/29 22:13:24;;;;;;;15.40;7.10;;;21.40;62.60;;;;;;210609;1324;22496;-51
2022/12/29 22:19:01;;;;;;;18.40;7.30;;;21.40;62.70;;;;;;208995;1319;24392;-56
2022/12/29 22:24:31;;;;;;;16.70;7.50;;;21.30;62.50;;;;;;209076;1329;22497;-55
2022/12/29 22:29:55;;;;;;;14.50;6.70;;;21.30;62.50;;;;;;209255;1328;25383;-54
2022/12/29 22:35:32;;;;;;;14.10;6.80;;;21.20;61.90;;;;;;209182;1311;24286;-54
2022/12/29 22:41:09;;;;;;;13.80;7.40;;;21.20;61.60;;;;;;209448;1314;22555;-54
2022/12/29 22:46:46;;;;;;;12.70;6.80;;;21.20;62.00;;;;;;211424;1321;22509;-55
2022/12/29 22:52:23;;;;;;;12.00;6.50;;;21.10;61.60;;;;;;209117;1302;22509;-55
2022/12/29 22:58:00;;;;;;;11.90;6.60;;;21.10;61.90;;;;;;209114;1317;22532;-55
2022/12/29 23:03:37;;;;;;;16.10;7.30;;;21.10;61.60;;;;;;209069;1314;22874;-53
2022/12/29 23:09:21;;;;;;;14.00;6.40;;;21.10;61.40;;;;;;209045;1308;22488;-53
2022/12/29 23:14:58;;;;;;;15.50;6.70;;;21.10;61.90;;;;;;209049;1309;22658;-55
2022/12/29 23:20:35;;;;;;;16.70;6.90;;;21.40;60.70;;;;;;209091;1321;23328;-55
2022/12/29 23:26:14;;;;;;;10.40;6.00;;;21.90;59.40;;;;;;209336;1330;23124;-53
2022/12/29 23:31:52;;;;;;;12.90;6.40;;;22.20;58.40;;;;;;209125;1325;23008;-53
2022/12/29 23:37:29;;;;;;;11.00;5.80;;;22.50;58.20;;;;;;210984;1318;22609;-54
2022/12/29 23:43:06;;;;;;;10.60;6.00;;;22.60;58.00;;;;;;209099;1324;23325;-55
2022/12/29 23:48:43;;;;;;;11.40;6.20;;;22.70;57.80;;;;;;211702;1314;23804;-53
2022/12/29 23:54:20;;;;;;;11.80;5.60;;;22.80;57.30;;;;;;209251;1318;22670;-55
2022/12/29 23:59:57;;;;;;;10.90;5.80;;;23.00;57.30;;;;;;211697;1315;24502;-54
